Time;durP1;ratioP1;P1;durP2;ratioP2;P2;SDS_P1;SDS_P2;PMS_P1;PMS_P2;Temp;Humidity;BMP_temperature;BMP_pressure;BME280_temperature;BME280_humidity;BME280_pressure;Samples;Min_cycle;Max_cycle;Signal;HPM_P1;HPM_P2
2021/05/30 00:00:09;;;;;;;;;;;15.90;94.10;;;;;;2080812;28;1885;-55
2021/05/30 00:01:28;;;;;;;;;;;15.90;94.10;;;;;;2082713;28;1964;-56
2021/05/30 00:02:47;;;;;;;;;;;15.90;94.20;;;;;;2081577;28;885;-55
2021/05/30 00:04:06;;;;;;;;;;;15.90;94.20;;;;;;2080956;28;713;-57
2021/05/30 00:05:25;;;;;;;;;;;15.90;94.50;;;;;;2081381;28;1538;-56
2021/05/30 00:06:45;;;;;;;;;;;15.90;94.20;;;;;;2081754;28;711;-58
2021/05/30 00:08:04;;;;;;;;;;;15.90;94.20;;;;;;2080876;28;746;-57
2021/05/30 00:09:23;;;;;;;;;;;15.90;94.30;;;;;;2072780;28;719;-58
2021/05/30 00:10:42;;;;;;;;;;;15.90;94.30;;;;;;2072780;28;713;-54
2021/05/30 00:12:02;;;;;;;;;;;15.90;94.30;;;;;;2077498;28;728;-55
2021/05/30 00:13:21;;;;;;;;;;;15.90;94.40;;;;;;2072573;28;1739;-55
2021/05/30 00:14:40;;;;;;;;;;;15.90;94.40;;;;;;2076896;28;713;-54
2021/05/30 00:16:00;;;;;;;;;;;15.90;94.30;;;;;;2083837;28;901;-55
2021/05/30 00:17:19;;;;;;;;;;;15.90;94.40;;;;;;2083008;28;1008;-56
2021/05/30 00:18:38;;;;;;;;;;;15.90;94.40;;;;;;2075604;28;1590;-55
2021/05/30 00:19:58;;;;;;;;;;;15.90;94.40;;;;;;2081256;28;776;-55
2021/05/30 00:21:17;;;;;;;;;;;15.90;94.70;;;;;;2080763;28;1476;-54
2021/05/30 00:22:36;;;;;;;;;;;15.90;94.30;;;;;;2072529;28;771;-57
2021/05/30 00:23:58;;;;;;;;;;;15.90;94.60;;;;;;2069292;28;777;-57
2021/05/30 00:25:17;;;;;;;;;;;15.90;94.30;;;;;;2061696;28;757;-56
2021/05/30 00:26:36;;;;;;;;;;;15.90;94.40;;;;;;2074470;28;1050;-57
2021/05/30 00:27:56;;;;;;;;;;;15.90;94.40;;;;;;2077636;28;789;-55
2021/05/30 00:29:15;;;;;;;;;;;15.90;94.30;;;;;;2086312;28;766;-56
2021/05/30 00:30:34;;;;;;;;;;;15.90;94.30;;;;;;2089013;28;752;-56
2021/05/30 00:31:54;;;;;;;;;;;15.90;94.40;;;;;;2088981;28;1373;-57
2021/05/30 00:33:15;;;;;;;;;;;15.80;94.30;;;;;;2073141;28;746;-56
2021/05/30 00:34:33;;;;;;;;;;;15.80;94.30;;;;;;2072783;28;743;-58
2021/05/30 00:35:53;;;;;;;;;;;15.80;94.70;;;;;;2072675;28;762;-56
2021/05/30 00:37:12;;;;;;;;;;;15.80;94.60;;;;;;2072360;28;760;-57
2021/05/30 00:38:31;;;;;;;;;;;15.80;94.30;;;;;;2064359;28;752;-57
2021/05/30 00:39:50;;;;;;;;;;;15.80;94.40;;;;;;2064410;28;696;-57
2021/05/30 00:41:10;;;;;;;;;;;15.90;94.40;;;;;;2069695;28;1401;-54
2021/05/30 00:42:29;;;;;;;;;;;15.80;94.40;;;;;;2075520;28;1682;-56
2021/05/30 00:43:49;;;;;;;;;;;15.80;94.40;;;;;;2072471;28;765;-54
2021/05/30 00:45:12;;;;;;;;;;;15.80;94.40;;;;;;2077682;28;761;-56
2021/05/30 00:46:31;;;;;;;;;;;15.80;94.50;;;;;;2065635;28;1520;-55
2021/05/30 00:47:50;;;;;;;;;;;15.80;94.50;;;;;;2080962;28;992;-57
2021/05/30 00:49:09;;;;;;;;;;;15.80;94.50;;;;;;2080339;28;1902;-56
2021/05/30 00:50:28;;;;;;;;;;;15.80;94.50;;;;;;2072671;28;924;-57
2021/05/30 00:51:47;;;;;;;;;;;15.80;94.90;;;;;;2072575;28;1381;-54
2021/05/30 00:53:07;;;;;;;;;;;15.80;94.60;;;;;;2072719;28;746;-57
2021/05/30 00:54:26;;;;;;;;;;;15.80;94.60;;;;;;2076881;28;728;-56
2021/05/30 00:55:45;;;;;;;;;;;15.80;94.60;;;;;;2080884;28;806;-58
2021/05/30 00:57:08;;;;;;;;;;;15.80;94.60;;;;;;2080791;28;738;-57
2021/05/30 00:58:27;;;;;;;;;;;15.80;94.60;;;;;;2067214;28;774;-55
2021/05/30 00:59:46;;;;;;;;;;;15.80;94.60;;;;;;2069694;28;1443;-58
2021/05/30 01:01:09;;;;;;;;;;;15.80;94.70;;;;;;2080606;28;1369;-58
2021/05/30 01:02:27;;;;;;;;;;;15.80;94.70;;;;;;2072376;28;767;-56
2021/05/30 01:03:47;;;;;;;;;;;15.80;94.70;;;;;;2077596;28;716;-57
2021/05/30 01:05:06;;;;;;;;;;;15.80;94.70;;;;;;2072499;28;956;-57
2021/05/30 01:06:26;;;;;;;;;;;15.80;94.70;;;;;;2069263;28;765;-56
2021/05/30 01:07:47;;;;;;;;;;;15.80;94.70;;;;;;2077642;28;729;-55
2021/05/30 01:09:06;;;;;;;;;;;15.80;94.60;;;;;;2072341;28;1910;-55
2021/05/30 01:10:27;;;;;;;;;;;15.80;94.60;;;;;;2077664;28;791;-55
2021/05/30 01:11:47;;;;;;;;;;;15.80;94.70;;;;;;2081358;28;1343;-57
2021/05/30 01:13:06;;;;;;;;;;;15.80;94.70;;;;;;2071868;28;757;-55
2021/05/30 01:14:25;;;;;;;;;;;15.80;95.00;;;;;;2068555;28;1579;-54
2021/05/30 01:15:44;;;;;;;;;;;15.70;94.90;;;;;;2078389;28;855;-57
2021/05/30 01:17:04;;;;;;;;;;;15.80;94.70;;;;;;2084922;28;1032;-55
2021/05/30 01:18:24;;;;;;;;;;;15.80;94.70;;;;;;2088562;28;1045;-57
2021/05/30 01:19:43;;;;;;;;;;;15.70;94.70;;;;;;2090608;28;742;-54
2021/05/30 01:21:03;;;;;;;;;;;15.70;94.70;;;;;;2090517;28;1374;-56
2021/05/30 01:22:22;;;;;;;;;;;15.70;94.70;;;;;;2086263;28;1724;-57
2021/05/30 01:23:41;;;;;;;;;;;15.70;94.70;;;;;;2073515;28;747;-56
2021/05/30 01:25:01;;;;;;;;;;;15.70;94.70;;;;;;2078881;28;762;-58
2021/05/30 01:26:20;;;;;;;;;;;15.70;94.70;;;;;;2077147;28;1213;-55
2021/05/30 01:27:39;;;;;;;;;;;15.70;94.80;;;;;;2082117;28;1421;-56
2021/05/30 01:28:59;;;;;;;;;;;15.70;94.70;;;;;;2063020;28;1972;-57
2021/05/30 01:30:18;;;;;;;;;;;15.70;94.80;;;;;;2075985;28;757;-57
2021/05/30 01:31:37;;;;;;;;;;;15.70;94.80;;;;;;2082005;28;1463;-56
2021/05/30 01:32:57;;;;;;;;;;;15.70;94.80;;;;;;2074122;28;702;-56
2021/05/30 01:34:16;;;;;;;;;;;15.70;94.90;;;;;;2078535;28;758;-55
2021/05/30 01:35:35;;;;;;;;;;;15.70;94.90;;;;;;2082169;28;1042;-56
2021/05/30 01:36:54;;;;;;;;;;;15.70;94.90;;;;;;2073755;28;752;-55
2021/05/30 01:38:14;;;;;;;;;;;15.70;94.90;;;;;;2078938;28;1431;-55
2021/05/30 01:39:33;;;;;;;;;;;15.70;94.90;;;;;;2073975;28;792;-58
2021/05/30 01:40:52;;;;;;;;;;;15.70;95.00;;;;;;2079256;28;778;-55
2021/05/30 01:42:11;;;;;;;;;;;15.70;95.00;;;;;;2082811;28;718;-56
2021/05/30 01:43:30;;;;;;;;;;;15.70;94.90;;;;;;2073908;28;726;-55
2021/05/30 01:44:50;;;;;;;;;;;15.70;94.90;;;;;;2069925;28;723;-57
2021/05/30 01:46:09;;;;;;;;;;;15.70;94.90;;;;;;2074214;28;1420;-57
2021/05/30 01:47:28;;;;;;;;;;;15.70;95.00;;;;;;2070885;28;895;-55
2021/05/30 01:48:47;;;;;;;;;;;15.70;95.00;;;;;;2070606;28;1902;-54
2021/05/30 01:50:08;;;;;;;;;;;15.70;95.00;;;;;;2073801;28;945;-58
2021/05/30 01:51:27;;;;;;;;;;;15.70;95.30;;;;;;2065526;28;1574;-54
2021/05/30 01:52:47;;;;;;;;;;;15.60;95.00;;;;;;2075403;28;750;-56
2021/05/30 01:54:08;;;;;;;;;;;15.60;95.00;;;;;;2073355;28;722;-54
2021/05/30 01:55:44;;;;;;;;;;;15.60;94.90;;;;;;2070957;28;818;-54
2021/05/30 01:57:08;;;;;;;;;;;15.60;94.90;;;;;;2065232;28;1723;-56
2021/05/30 01:58:27;;;;;;;;;;;15.60;94.90;;;;;;2079406;28;1479;-58
2021/05/30 01:59:47;;;;;;;;;;;15.60;94.90;;;;;;2073613;28;718;-57
2021/05/30 02:01:06;;;;;;;;;;;15.60;94.90;;;;;;2078827;28;1368;-55
2021/05/30 02:02:26;;;;;;;;;;;15.60;94.90;;;;;;2082379;28;782;-54
2021/05/30 02:03:45;;;;;;;;;;;15.60;95.00;;;;;;2073796;28;777;-56
2021/05/30 02:05:05;;;;;;;;;;;15.60;94.90;;;;;;2065440;28;744;-55
2021/05/30 02:06:24;;;;;;;;;;;15.60;95.00;;;;;;2070870;28;754;-56
2021/05/30 02:07:43;;;;;;;;;;;15.60;95.00;;;;;;2073545;28;725;-57
2021/05/30 02:09:02;;;;;;;;;;;15.60;95.00;;;;;;2057511;28;1975;-55
2021/05/30 02:10:22;;;;;;;;;;;15.60;95.00;;;;;;2067368;28;698;-56
2021/05/30 02:11:41;;;;;;;;;;;15.60;95.00;;;;;;2073780;28;1355;-56
2021/05/30 02:13:00;;;;;;;;;;;15.60;95.30;;;;;;2074123;28;717;-55
2021/05/30 02:14:20;;;;;;;;;;;15.60;95.00;;;;;;2072622;28;727;-56
2021/05/30 02:15:39;;;;;;;;;;;15.60;95.00;;;;;;2067672;28;1003;-57
2021/05/30 02:16:58;;;;;;;;;;;15.60;95.00;;;;;;2084235;28;901;-56
2021/05/30 02:18:17;;;;;;;;;;;15.60;95.40;;;;;;2082767;28;1696;-58
2021/05/30 02:19:37;;;;;;;;;;;15.60;95.10;;;;;;2073988;28;758;-58
2021/05/30 02:20:56;;;;;;;;;;;15.60;95.20;;;;;;2070189;28;1526;-57
2021/05/30 02:22:15;;;;;;;;;;;15.60;95.10;;;;;;2065374;28;802;-55
2021/05/30 02:23:35;;;;;;;;;;;15.60;95.10;;;;;;2070458;28;699;-54
2021/05/30 02:24:54;;;;;;;;;;;15.60;95.10;;;;;;2078656;28;692;-56
2021/05/30 02:26:13;;;;;;;;;;;15.60;95.10;;;;;;2081631;28;765;-55
2021/05/30 02:27:32;;;;;;;;;;;15.60;95.20;;;;;;2073214;28;716;-55
2021/05/30 02:28:52;;;;;;;;;;;15.60;95.10;;;;;;2061297;28;1894;-55
2021/05/30 02:30:11;;;;;;;;;;;15.60;95.20;;;;;;2071848;28;1477;-55
2021/05/30 02:31:30;;;;;;;;;;;15.60;95.50;;;;;;2064753;28;1491;-56
2021/05/30 02:32:49;;;;;;;;;;;15.50;95.10;;;;;;2064362;28;1401;-58
2021/05/30 02:34:08;;;;;;;;;;;15.60;95.10;;;;;;2076834;28;1162;-56
2021/05/30 02:35:28;;;;;;;;;;;15.60;95.10;;;;;;2069488;28;1116;-57
2021/05/30 02:36:47;;;;;;;;;;;15.50;95.10;;;;;;2074627;28;1447;-55
2021/05/30 02:38:06;;;;;;;;;;;15.50;95.20;;;;;;2070386;28;1554;-57
2021/05/30 02:39:25;;;;;;;;;;;15.60;95.20;;;;;;2069322;28;1316;-57
2021/05/30 02:40:45;;;;;;;;;;;15.50;95.10;;;;;;2076293;28;1194;-57
2021/05/30 02:42:04;;;;;;;;;;;15.50;95.10;;;;;;2070658;28;1237;-55
2021/05/30 02:43:24;;;;;;;;;;;15.50;95.10;;;;;;2073488;28;1067;-56
2021/05/30 02:44:43;;;;;;;;;;;15.50;95.10;;;;;;2071627;28;1412;-56
2021/05/30 02:46:02;;;;;;;;;;;15.50;95.10;;;;;;2068966;28;1095;-57
2021/05/30 02:47:21;;;;;;;;;;;15.50;95.10;;;;;;2073197;28;1111;-57
2021/05/30 02:48:40;;;;;;;;;;;15.50;95.40;;;;;;2077843;28;1934;-58
2021/05/30 02:50:00;;;;;;;;;;;15.50;95.40;;;;;;2070988;28;1240;-56
2021/05/30 02:51:19;;;;;;;;;;;15.50;95.10;;;;;;2077609;28;1455;-58
2021/05/30 02:52:38;;;;;;;;;;;15.50;95.10;;;;;;2076443;28;1177;-57
2021/05/30 02:53:58;;;;;;;;;;;15.50;95.10;;;;;;2072552;28;1210;-56
2021/05/30 02:55:17;;;;;;;;;;;15.50;95.10;;;;;;2078306;28;1153;-56
2021/05/30 02:56:36;;;;;;;;;;;15.50;95.10;;;;;;2071333;28;1227;-58
2021/05/30 02:57:56;;;;;;;;;;;15.50;95.10;;;;;;2068937;28;1424;-55
2021/05/30 02:59:15;;;;;;;;;;;15.50;95.10;;;;;;2077889;28;1060;-57
2021/05/30 03:00:34;;;;;;;;;;;15.50;95.20;;;;;;2070986;28;1211;-58
2021/05/30 03:01:54;;;;;;;;;;;15.50;95.20;;;;;;2074971;28;1383;-58
2021/05/30 03:03:13;;;;;;;;;;;15.50;95.20;;;;;;2070057;28;1163;-58
2021/05/30 03:04:32;;;;;;;;;;;15.50;95.20;;;;;;2068975;28;1124;-58
2021/05/30 03:05:51;;;;;;;;;;;15.50;95.20;;;;;;2075750;28;1190;-58
2021/05/30 03:07:10;;;;;;;;;;;15.50;95.20;;;;;;2078140;28;1286;-57
2021/05/30 03:08:30;;;;;;;;;;;15.50;95.50;;;;;;2071647;28;1899;-60
2021/05/30 03:09:49;;;;;;;;;;;15.50;95.20;;;;;;2060816;28;1256;-56
2021/05/30 03:11:09;;;;;;;;;;;15.50;95.30;;;;;;2064431;28;1445;-59
2021/05/30 03:12:28;;;;;;;;;;;15.50;95.30;;;;;;2065714;28;1070;-57
2021/05/30 03:13:48;;;;;;;;;;;15.50;95.40;;;;;;2070364;28;1353;-59
2021/05/30 03:15:07;;;;;;;;;;;15.50;95.50;;;;;;2075194;28;1154;-58
2021/05/30 03:16:27;;;;;;;;;;;15.50;95.60;;;;;;2078123;28;1334;-57
2021/05/30 03:17:46;;;;;;;;;;;15.40;95.50;;;;;;2078694;28;1296;-57
2021/05/30 03:19:05;;;;;;;;;;;15.50;95.60;;;;;;2080180;28;1068;-54
2021/05/30 03:20:24;;;;;;;;;;;15.50;95.60;;;;;;2077576;28;1293;-55
2021/05/30 03:21:44;;;;;;;;;;;15.50;95.70;;;;;;2075990;28;1423;-55
2021/05/30 03:23:03;;;;;;;;;;;15.50;96.00;;;;;;2076616;28;1607;-55
2021/05/30 03:24:22;;;;;;;;;;;15.40;96.00;;;;;;2065254;28;1335;-55
2021/05/30 03:25:41;;;;;;;;;;;15.40;95.80;;;;;;2068548;28;1170;-54
2021/05/30 03:27:00;;;;;;;;;;;15.40;95.80;;;;;;2066628;28;1284;-56
2021/05/30 03:28:20;;;;;;;;;;;15.40;95.80;;;;;;2076684;28;1910;-57
2021/05/30 03:29:39;;;;;;;;;;;15.50;95.80;;;;;;2077788;28;1239;-55
2021/05/30 03:30:58;;;;;;;;;;;15.40;95.80;;;;;;2079392;28;1207;-57
2021/05/30 03:32:17;;;;;;;;;;;15.40;95.80;;;;;;2078384;28;1428;-55
2021/05/30 03:33:37;;;;;;;;;;;15.40;95.80;;;;;;2079622;28;1480;-58
2021/05/30 03:34:56;;;;;;;;;;;15.40;96.00;;;;;;2077720;28;1189;-58
2021/05/30 03:36:20;;;;;;;;;;;15.40;95.80;;;;;;2070006;28;1139;-56
2021/05/30 03:37:39;;;;;;;;;;;15.50;95.90;;;;;;2077312;28;1167;-58
2021/05/30 03:39:02;;;;;;;;;;;15.40;96.10;;;;;;2081649;28;1274;-55
2021/05/30 03:41:42;;;;;;;;;;;15.50;95.70;;;;;;2078504;28;1423;-54
2021/05/30 03:43:01;;;;;;;;;;;15.40;95.70;;;;;;2067423;28;1336;-55
2021/05/30 03:44:21;;;;;;;;;;;15.40;95.70;;;;;;2074249;28;1395;-56
2021/05/30 03:45:40;;;;;;;;;;;15.40;95.70;;;;;;2077155;28;1695;-55
2021/05/30 03:46:59;;;;;;;;;;;15.40;95.70;;;;;;2078571;28;1265;-55
2021/05/30 03:48:18;;;;;;;;;;;15.40;95.70;;;;;;2074272;28;1154;-56
2021/05/30 03:49:37;;;;;;;;;;;15.40;96.10;;;;;;2078865;28;1186;-56
2021/05/30 03:50:57;;;;;;;;;;;15.40;96.10;;;;;;2065912;28;1238;-56
2021/05/30 03:52:16;;;;;;;;;;;15.40;95.80;;;;;;2070609;28;1280;-55
2021/05/30 03:53:35;;;;;;;;;;;15.40;95.80;;;;;;2074371;28;1248;-56
2021/05/30 03:54:54;;;;;;;;;;;15.40;95.80;;;;;;2074920;28;1795;-55
2021/05/30 03:56:14;;;;;;;;;;;15.40;95.80;;;;;;2071305;28;1417;-56
2021/05/30 03:57:34;;;;;;;;;;;15.40;95.80;;;;;;2069746;28;1883;-58
2021/05/30 03:58:54;;;;;;;;;;;15.40;95.80;;;;;;2070923;28;1289;-56
2021/05/30 04:00:14;;;;;;;;;;;15.40;95.80;;;;;;2066651;28;1252;-57
2021/05/30 04:01:35;;;;;;;;;;;15.40;95.80;;;;;;2071007;28;1526;-57
2021/05/30 04:02:54;;;;;;;;;;;15.40;95.80;;;;;;2073698;28;1212;-55
2021/05/30 04:04:13;;;;;;;;;;;15.40;96.10;;;;;;2077854;28;1555;-56
2021/05/30 04:05:32;;;;;;;;;;;15.40;95.80;;;;;;2069902;28;983;-57
2021/05/30 04:06:52;;;;;;;;;;;15.40;95.90;;;;;;2074707;28;891;-55
2021/05/30 04:08:11;;;;;;;;;;;15.40;96.20;;;;;;2070952;28;1065;-55
2021/05/30 04:09:31;;;;;;;;;;;15.40;95.90;;;;;;2072407;28;1256;-58
2021/05/30 04:10:51;;;;;;;;;;;15.40;95.90;;;;;;2071045;28;1187;-56
2021/05/30 04:12:10;;;;;;;;;;;15.40;95.90;;;;;;2071879;28;936;-57
2021/05/30 04:13:29;;;;;;;;;;;15.40;95.90;;;;;;2072354;28;1239;-58
2021/05/30 04:14:48;;;;;;;;;;;15.40;95.80;;;;;;2081263;28;1047;-55
2021/05/30 04:16:08;;;;;;;;;;;15.40;95.90;;;;;;2079002;28;1192;-57
2021/05/30 04:17:27;;;;;;;;;;;15.40;95.90;;;;;;2077772;28;904;-54
2021/05/30 04:18:46;;;;;;;;;;;15.40;95.90;;;;;;2065989;28;1321;-56
2021/05/30 04:20:07;;;;;;;;;;;15.40;95.80;;;;;;2072816;28;1024;-58
2021/05/30 04:21:26;;;;;;;;;;;15.40;96.20;;;;;;2076490;28;1377;-56
2021/05/30 04:22:46;;;;;;;;;;;15.40;95.80;;;;;;2067104;28;1580;-55
2021/05/30 04:24:05;;;;;;;;;;;15.40;95.90;;;;;;2074845;28;1203;-57
2021/05/30 04:25:24;;;;;;;;;;;15.40;95.80;;;;;;2079089;28;1525;-56
2021/05/30 04:26:44;;;;;;;;;;;15.40;95.80;;;;;;2070811;28;1242;-56
2021/05/30 04:28:03;;;;;;;;;;;15.40;95.80;;;;;;2072849;28;1124;-55
2021/05/30 04:29:22;;;;;;;;;;;15.40;95.80;;;;;;2068295;28;1165;-57
2021/05/30 04:30:42;;;;;;;;;;;15.40;95.80;;;;;;2074848;28;1309;-56
2021/05/30 04:32:02;;;;;;;;;;;15.40;95.80;;;;;;2077692;28;1560;-57
2021/05/30 04:33:21;;;;;;;;;;;15.40;95.80;;;;;;2070488;28;1652;-57
2021/05/30 04:34:40;;;;;;;;;;;15.40;95.80;;;;;;2075935;28;1179;-58
2021/05/30 04:36:00;;;;;;;;;;;15.40;96.20;;;;;;2080183;28;1057;-57
2021/05/30 04:37:19;;;;;;;;;;;15.40;95.80;;;;;;2077815;28;1328;-56
2021/05/30 04:38:38;;;;;;;;;;;15.40;95.90;;;;;;2079004;28;1271;-57
2021/05/30 04:39:58;;;;;;;;;;;15.40;95.70;;;;;;2077594;28;1376;-57
2021/05/30 04:41:17;;;;;;;;;;;15.40;95.60;;;;;;2080294;28;1391;-57
2021/05/30 04:42:36;;;;;;;;;;;15.40;95.70;;;;;;2075379;28;1162;-58
2021/05/30 04:43:55;;;;;;;;;;;15.40;96.20;;;;;;2070203;28;1103;-56
2021/05/30 04:45:15;;;;;;;;;;;15.40;95.80;;;;;;2069788;28;1372;-57
2021/05/30 04:46:34;;;;;;;;;;;15.40;96.30;;;;;;2070905;28;1123;-58
2021/05/30 04:47:53;;;;;;;;;;;15.40;96.50;;;;;;2076985;28;1083;-56
2021/05/30 04:49:12;;;;;;;;;;;15.40;96.30;;;;;;2081216;28;1973;-55
2021/05/30 04:50:31;;;;;;;;;;;15.40;96.30;;;;;;2078344;28;1459;-57
2021/05/30 04:51:50;;;;;;;;;;;15.40;96.30;;;;;;2068775;28;1431;-58
2021/05/30 04:53:09;;;;;;;;;;;15.40;96.80;;;;;;2074280;28;1413;-55
2021/05/30 04:54:29;;;;;;;;;;;15.40;96.90;;;;;;2070441;28;1085;-55
2021/05/30 04:55:48;;;;;;;;;;;15.40;96.60;;;;;;2066833;28;1258;-55
2021/05/30 04:57:07;;;;;;;;;;;15.40;96.90;;;;;;2075810;28;1231;-57
2021/05/30 04:58:27;;;;;;;;;;;15.40;97.00;;;;;;2078979;28;1084;-57
2021/05/30 04:59:46;;;;;;;;;;;15.40;97.20;;;;;;2068022;28;1092;-56
2021/05/30 05:01:06;;;;;;;;;;;15.40;97.50;;;;;;2075938;28;1385;-55
2021/05/30 05:02:25;;;;;;;;;;;15.40;97.50;;;;;;2068840;28;1354;-55
2021/05/30 05:03:44;;;;;;;;;;;15.40;97.40;;;;;;2075765;28;1670;-59
2021/05/30 05:05:05;;;;;;;;;;;15.40;97.60;;;;;;2067521;28;1329;-59
2021/05/30 05:06:24;;;;;;;;;;;15.40;97.50;;;;;;2064502;28;1146;-58
2021/05/30 05:07:44;;;;;;;;;;;15.40;97.40;;;;;;2069170;28;1219;-58
2021/05/30 05:09:03;;;;;;;;;;;15.40;97.40;;;;;;2075560;28;1902;-58
2021/05/30 05:10:22;;;;;;;;;;;15.40;97.20;;;;;;2076938;28;1130;-59
2021/05/30 05:11:42;;;;;;;;;;;15.40;97.20;;;;;;2069115;28;1498;-58
2021/05/30 05:13:01;;;;;;;;;;;15.40;97.10;;;;;;2075847;28;1717;-60
2021/05/30 05:14:20;;;;;;;;;;;15.40;97.40;;;;;;2078711;28;1372;-58
2021/05/30 05:15:41;;;;;;;;;;;15.40;97.50;;;;;;2066272;28;1150;-57
2021/05/30 05:17:00;;;;;;;;;;;15.40;97.50;;;;;;2074725;28;926;-56
2021/05/30 05:18:20;;;;;;;;;;;15.40;97.50;;;;;;2074387;28;1155;-58
2021/05/30 05:19:39;;;;;;;;;;;15.50;97.60;;;;;;2078563;28;1099;-58
2021/05/30 05:20:59;;;;;;;;;;;15.50;97.60;;;;;;2075287;28;1149;-56
2021/05/30 05:22:18;;;;;;;;;;;15.50;98.00;;;;;;2070333;28;1296;-56
2021/05/30 05:23:37;;;;;;;;;;;15.50;97.70;;;;;;2072514;28;1129;-58
2021/05/30 05:24:56;;;;;;;;;;;15.50;97.90;;;;;;2071205;28;1141;-56
2021/05/30 05:26:15;;;;;;;;;;;15.50;98.10;;;;;;2073882;28;1060;-59
2021/05/30 05:27:34;;;;;;;;;;;15.60;97.50;;;;;;2072042;28;1171;-57
2021/05/30 05:28:54;;;;;;;;;;;15.60;97.50;;;;;;2076156;28;1902;-57
2021/05/30 05:30:13;;;;;;;;;;;15.60;97.30;;;;;;2080297;28;1218;-57
2021/05/30 05:31:33;;;;;;;;;;;15.60;97.20;;;;;;2071980;28;1526;-57
2021/05/30 05:32:52;;;;;;;;;;;15.60;97.40;;;;;;2074545;28;1677;-57
2021/05/30 05:34:12;;;;;;;;;;;15.60;97.60;;;;;;2075923;28;1351;-57
2021/05/30 05:35:31;;;;;;;;;;;15.60;97.50;;;;;;2070393;28;1113;-58
2021/05/30 05:36:50;;;;;;;;;;;15.60;97.70;;;;;;2074599;28;1165;-58
2021/05/30 05:38:09;;;;;;;;;;;15.60;97.60;;;;;;2072432;28;1148;-58
2021/05/30 05:39:29;;;;;;;;;;;15.60;97.40;;;;;;2076150;28;1292;-56
2021/05/30 05:40:48;;;;;;;;;;;15.60;97.40;;;;;;2074282;28;1401;-59
2021/05/30 05:42:07;;;;;;;;;;;15.60;97.40;;;;;;2078786;28;1232;-56
2021/05/30 05:43:27;;;;;;;;;;;15.60;97.70;;;;;;2078062;28;1128;-57
2021/05/30 05:44:46;;;;;;;;;;;15.60;97.50;;;;;;2075748;28;1203;-56
2021/05/30 05:46:05;;;;;;;;;;;15.60;97.50;;;;;;2075697;28;1203;-57
2021/05/30 05:47:24;;;;;;;;;;;15.60;97.40;;;;;;2066338;28;1103;-58
2021/05/30 05:48:44;;;;;;;;;;;15.70;97.40;;;;;;2073365;28;1910;-57
2021/05/30 05:50:03;;;;;;;;;;;15.60;97.40;;;;;;2080150;28;1085;-57
2021/05/30 05:51:22;;;;;;;;;;;15.60;97.50;;;;;;2075697;28;1437;-56
2021/05/30 05:52:42;;;;;;;;;;;15.60;97.40;;;;;;2065246;28;1274;-58
2021/05/30 05:54:01;;;;;;;;;;;15.70;97.40;;;;;;2071199;28;1257;-57
2021/05/30 05:55:21;;;;;;;;;;;15.70;97.40;;;;;;2077727;28;1286;-56
2021/05/30 05:56:40;;;;;;;;;;;15.70;97.40;;;;;;2077588;28;1135;-57
2021/05/30 05:57:59;;;;;;;;;;;15.70;97.30;;;;;;2077494;28;1249;-56
2021/05/30 05:59:18;;;;;;;;;;;15.70;97.60;;;;;;2077128;28;1300;-56
2021/05/30 06:00:37;;;;;;;;;;;15.70;97.20;;;;;;2072397;28;1353;-58
2021/05/30 06:01:57;;;;;;;;;;;15.70;97.20;;;;;;2077653;28;1461;-56
2021/05/30 06:03:16;;;;;;;;;;;15.70;97.20;;;;;;2069709;28;1127;-57
2021/05/30 06:04:35;;;;;;;;;;;15.70;97.10;;;;;;2079765;28;1122;-57
2021/05/30 06:05:55;;;;;;;;;;;15.70;97.10;;;;;;2081865;28;1409;-56
2021/05/30 06:07:15;;;;;;;;;;;15.70;97.10;;;;;;2073406;28;1208;-57
2021/05/30 06:08:34;;;;;;;;;;;15.70;97.00;;;;;;2072032;28;1906;-56
2021/05/30 06:09:53;;;;;;;;;;;15.70;97.00;;;;;;2071315;28;1282;-56
2021/05/30 06:11:13;;;;;;;;;;;15.70;97.00;;;;;;2066576;28;1609;-55
2021/05/30 06:12:32;;;;;;;;;;;15.70;97.00;;;;;;2072908;28;1074;-55
2021/05/30 06:13:51;;;;;;;;;;;15.80;97.10;;;;;;2072275;28;856;-58
2021/05/30 06:15:10;;;;;;;;;;;15.80;97.10;;;;;;2077303;28;1177;-56
2021/05/30 06:16:29;;;;;;;;;;;15.70;97.20;;;;;;2080287;28;1010;-57
2021/05/30 06:18:23;;;;;;;;;;;15.70;97.20;;;;;;2081634;28;1125;-58
2021/05/30 06:19:34;;;;;;;;;;;15.80;96.90;;;;;;2075678;28;1123;-54
2021/05/30 06:20:53;;;;;;;;;;;15.80;97.10;;;;;;2076235;28;990;-55
2021/05/30 06:22:16;;;;;;;;;;;15.80;97.30;;;;;;2083262;28;1057;-55
2021/05/30 06:23:37;;;;;;;;;;;15.80;96.90;;;;;;2079880;28;1053;-57
2021/05/30 06:24:56;;;;;;;;;;;15.80;97.00;;;;;;2082318;28;1382;-57
2021/05/30 06:26:15;;;;;;;;;;;15.80;97.00;;;;;;2073751;28;999;-57
2021/05/30 06:27:34;;;;;;;;;;;15.80;96.90;;;;;;2072332;28;1232;-54
2021/05/30 06:28:54;;;;;;;;;;;15.80;97.10;;;;;;2076066;28;1898;-56
2021/05/30 06:30:13;;;;;;;;;;;15.80;96.70;;;;;;2077648;28;1812;-55
2021/05/30 06:31:32;;;;;;;;;;;15.80;96.50;;;;;;2077556;28;1753;-58
2021/05/30 06:32:51;;;;;;;;;;;15.80;96.70;;;;;;2080627;28;1698;-57
2021/05/30 06:34:15;;;;;;;;;;;15.80;96.60;;;;;;2073822;28;1242;-56
2021/05/30 06:35:35;;;;;;;;;;;15.80;96.90;;;;;;2080026;28;1293;-58
2021/05/30 06:36:55;;;;;;;;;;;15.80;96.50;;;;;;2079206;28;1127;-56
2021/05/30 06:38:14;;;;;;;;;;;15.80;96.40;;;;;;2072734;28;1188;-57
2021/05/30 06:39:33;;;;;;;;;;;15.80;96.40;;;;;;2074228;28;1227;-56
2021/05/30 06:40:53;;;;;;;;;;;15.80;96.30;;;;;;2071968;28;1153;-57
2021/05/30 06:42:12;;;;;;;;;;;15.90;96.30;;;;;;2076747;28;1476;-57
2021/05/30 06:43:31;;;;;;;;;;;15.90;96.30;;;;;;2077536;28;1164;-57
2021/05/30 06:44:50;;;;;;;;;;;15.90;96.30;;;;;;2079679;28;1300;-58
2021/05/30 06:46:09;;;;;;;;;;;15.90;96.20;;;;;;2078745;28;1317;-57
2021/05/30 06:47:29;;;;;;;;;;;15.90;96.20;;;;;;2068988;28;1273;-57
2021/05/30 06:48:48;;;;;;;;;;;15.90;96.50;;;;;;2063985;28;2009;-57
2021/05/30 06:50:07;;;;;;;;;;;15.90;96.10;;;;;;2062345;28;1253;-57
2021/05/30 06:51:29;;;;;;;;;;;15.90;96.10;;;;;;2070199;28;1975;-58
2021/05/30 06:52:49;;;;;;;;;;;15.90;96.00;;;;;;2065656;28;1220;-55
2021/05/30 06:54:09;;;;;;;;;;;15.90;96.00;;;;;;2074200;28;1412;-58
2021/05/30 06:55:28;;;;;;;;;;;15.90;96.00;;;;;;2070969;28;1259;-58
2021/05/30 06:56:47;;;;;;;;;;;15.90;95.90;;;;;;2065925;28;1251;-57
2021/05/30 06:58:07;;;;;;;;;;;15.90;95.90;;;;;;2072258;28;1141;-56
2021/05/30 06:59:26;;;;;;;;;;;15.90;95.90;;;;;;2070602;28;988;-55
2021/05/30 07:00:45;;;;;;;;;;;15.90;95.90;;;;;;2068130;28;920;-58
2021/05/30 07:02:04;;;;;;;;;;;15.90;95.90;;;;;;2071073;28;1313;-58
2021/05/30 07:03:24;;;;;;;;;;;15.90;95.80;;;;;;2073891;28;1119;-57
2021/05/30 07:04:43;;;;;;;;;;;15.90;95.90;;;;;;2079039;28;1259;-61
2021/05/30 07:06:02;;;;;;;;;;;15.90;95.90;;;;;;2074983;28;1267;-57
2021/05/30 07:07:21;;;;;;;;;;;15.90;96.00;;;;;;2074432;28;1125;-59
2021/05/30 07:08:41;;;;;;;;;;;15.90;96.00;;;;;;2077546;28;1902;-59
2021/05/30 07:10:00;;;;;;;;;;;15.90;96.20;;;;;;2079257;28;1516;-57
2021/05/30 07:11:20;;;;;;;;;;;15.90;96.40;;;;;;2070691;28;1573;-58
2021/05/30 07:12:39;;;;;;;;;;;15.90;96.20;;;;;;2076555;28;1490;-60
2021/05/30 07:13:59;;;;;;;;;;;15.90;96.30;;;;;;2069726;28;1171;-59
2021/05/30 07:15:18;;;;;;;;;;;15.90;96.50;;;;;;2073519;28;1331;-59
2021/05/30 07:16:37;;;;;;;;;;;15.90;96.60;;;;;;2063784;28;1081;-59
2021/05/30 07:17:56;;;;;;;;;;;15.90;96.60;;;;;;2070665;28;1228;-56
2021/05/30 07:19:15;;;;;;;;;;;15.90;96.70;;;;;;2074041;28;1264;-57
2021/05/30 07:20:35;;;;;;;;;;;15.90;96.80;;;;;;2073701;28;1286;-58
2021/05/30 07:21:54;;;;;;;;;;;15.90;96.90;;;;;;2072808;28;1379;-54
2021/05/30 07:23:14;;;;;;;;;;;15.90;96.70;;;;;;2071738;28;1294;-56
2021/05/30 07:24:34;;;;;;;;;;;15.90;96.90;;;;;;2076642;28;1192;-55
2021/05/30 07:25:54;;;;;;;;;;;15.90;96.90;;;;;;2075572;28;1124;-58
2021/05/30 07:27:13;;;;;;;;;;;15.90;97.00;;;;;;2077618;28;1492;-58
2021/05/30 07:28:32;;;;;;;;;;;15.90;97.00;;;;;;2073208;28;1955;-56
2021/05/30 07:29:52;;;;;;;;;;;15.90;96.90;;;;;;2070711;28;886;-57
2021/05/30 07:31:12;;;;;;;;;;;15.90;97.00;;;;;;2070677;28;1471;-58
2021/05/30 07:32:31;;;;;;;;;;;15.90;97.10;;;;;;2071882;28;1084;-57
2021/05/30 07:33:50;;;;;;;;;;;15.90;97.00;;;;;;2076816;28;1036;-59
2021/05/30 07:35:09;;;;;;;;;;;15.90;97.00;;;;;;2076031;28;1233;-57
2021/05/30 07:36:29;;;;;;;;;;;15.90;97.00;;;;;;2075993;28;1062;-56
2021/05/30 07:37:48;;;;;;;;;;;15.90;96.90;;;;;;2068343;28;1373;-57
2021/05/30 07:39:07;;;;;;;;;;;15.90;96.70;;;;;;2075999;28;1017;-56
2021/05/30 07:40:27;;;;;;;;;;;16.00;96.80;;;;;;2059474;28;1169;-57
2021/05/30 07:41:46;;;;;;;;;;;15.90;96.70;;;;;;2068269;28;1554;-57
2021/05/30 07:43:05;;;;;;;;;;;15.90;96.60;;;;;;2079439;28;1196;-56
2021/05/30 07:44:24;;;;;;;;;;;15.90;96.60;;;;;;2068353;28;1170;-57
2021/05/30 07:45:44;;;;;;;;;;;15.90;96.60;;;;;;2075370;28;1158;-58
2021/05/30 07:47:03;;;;;;;;;;;15.90;96.60;;;;;;2075887;28;1365;-56
2021/05/30 07:48:23;;;;;;;;;;;15.90;96.60;;;;;;2078705;28;1304;-55
2021/05/30 07:49:42;;;;;;;;;;;15.90;96.50;;;;;;2078055;28;1434;-57
2021/05/30 07:51:01;;;;;;;;;;;15.90;96.50;;;;;;2074662;28;1208;-56
2021/05/30 07:52:20;;;;;;;;;;;15.90;96.60;;;;;;2074487;28;1268;-57